createdAt,value
2022-09-10T00:10:21.056Z,99988.56
2022-09-10T00:17:27.378Z,99976.06
2022-09-10T00:20:17.996Z,99981.31
2022-09-10T00:22:53.277Z,99979.44
2022-09-10T00:25:44.396Z,99982.97
2022-09-10T00:28:21.308Z,99989.03
2022-09-10T00:30:57.739Z,99994.47
2022-09-10T00:33:51.023Z,99983.63
2022-09-10T00:36:28.559Z,99980.91
2022-09-10T00:54:26.743Z,99983.84
2022-09-10T00:57:22.171Z,99991.31
2022-09-10T01:10:53.023Z,99996.34
2022-09-10T01:25:56.267Z,100021.50
2022-09-10T01:51:48.316Z,100030.81
2022-09-10T01:58:57.562Z,100039.72
2022-09-10T02:05:55.250Z,100048.41
2022-09-10T02:09:48.442Z,100051.56
2022-09-10T02:16:53.384Z,100041.78
2022-09-10T02:19:55.302Z,100054.00
2022-09-10T02:23:47.673Z,100059.78
2022-09-10T02:39:15.835Z,100087.19
2022-09-10T02:49:12.899Z,100112.97
2022-09-10T03:03:20.823Z,100133.19
2022-09-10T03:14:21.142Z,100160.00
2022-09-10T03:23:31.728Z,100165.66
2022-09-10T03:39:21.661Z,100205.97
2022-09-10T03:41:55.995Z,100212.03
2022-09-10T03:45:37.538Z,100221.31
2022-09-10T03:55:23.386Z,100266.25
2022-09-10T04:04:19.721Z,100279.50
2022-09-10T04:07:16.237Z,100276.31
2022-09-10T04:10:20.302Z,100277.31
2022-09-10T04:13:37.654Z,100276.28
2022-09-10T04:17:08.259Z,100284.34
2022-09-10T04:20:12.113Z,100275.28
2022-09-10T04:22:45.521Z,100278.63
2022-09-10T04:25:25.754Z,100278.63
2022-09-10T04:28:12.907Z,100285.88
2022-09-10T04:31:20.207Z,100292.44
2022-09-10T04:34:19.873Z,100304.88
2022-09-10T04:36:53.146Z,100303.38
2022-09-10T04:43:19.735Z,100312.31
2022-09-10T04:46:25.280Z,100314.13
2022-09-10T04:53:45.271Z,100312.28
2022-09-10T04:59:41.677Z,100315.47
2022-09-10T05:06:22.993Z,100332.44
2022-09-10T05:09:38.972Z,100342.19
2022-09-10T05:19:42.407Z,100350.28
2022-09-10T05:22:48.069Z,100350.06
2022-09-10T05:25:41.658Z,100364.06
2022-09-10T05:28:19.402Z,100366.56
2022-09-10T05:34:47.040Z,100372.75
2022-09-10T05:37:43.260Z,100366.69
2022-09-10T05:40:45.304Z,100375.09
2022-09-10T05:43:46.561Z,100370.06
2022-09-10T05:46:38.860Z,100375.75
2022-09-10T05:49:09.639Z,100388.00
2022-09-10T05:51:37.987Z,100404.97
2022-09-10T05:54:06.675Z,100417.41
2022-09-10T05:56:37.776Z,100436.75
2022-09-10T06:02:34.817Z,100435.09
2022-09-10T06:05:35.303Z,100428.50
2022-09-10T06:11:34.263Z,100420.13
2022-09-10T06:14:38.389Z,100418.25
2022-09-10T06:20:10.730Z,100434.94
2022-09-10T06:23:03.438Z,100441.63
2022-09-10T06:25:49.398Z,100442.78
2022-09-10T06:41:09.221Z,100455.91
2022-09-10T06:47:39.433Z,100436.66
2022-09-10T06:57:10.894Z,100412.03
2022-09-10T07:00:12.404Z,100412.94
2022-09-10T07:06:09.432Z,100429.75
2022-09-10T07:09:31.776Z,100435.59
2022-09-10T07:13:01.067Z,100446.84
2022-09-10T07:16:02.865Z,100460.22
2022-09-10T07:28:14.240Z,100464.88
2022-09-10T07:31:01.360Z,100458.16
2022-09-10T07:36:48.686Z,100491.00
2022-09-10T07:42:35.685Z,100486.63
2022-09-10T07:48:08.194Z,100490.34
2022-09-10T07:51:01.932Z,100496.06
2022-09-10T07:53:32.789Z,100495.34
2022-09-10T07:56:11.518Z,100501.72
2022-09-10T07:58:46.171Z,100494.50
2022-09-10T08:04:35.892Z,100499.72
2022-09-10T08:14:35.262Z,100500.47
2022-09-10T08:17:10.105Z,100508.13
2022-09-10T08:23:30.262Z,100523.19
2022-09-10T08:28:11.640Z,100526.81
2022-09-10T08:29:34.191Z,100527.22
2022-09-10T08:32:34.896Z,100541.78
2022-09-10T08:35:28.474Z,100538.03
2022-09-10T08:38:33.605Z,100538.47
2022-09-10T08:41:32.038Z,100539.06
2022-09-10T08:44:28.809Z,100552.31
2022-09-10T09:01:56.298Z,100530.16
2022-09-10T09:04:53.751Z,100542.00
2022-09-10T09:11:29.476Z,100553.94
2022-09-10T09:14:34.641Z,100548.56
2022-09-10T09:17:36.607Z,100548.91
2022-09-10T09:26:40.222Z,100561.44
2022-09-10T09:29:30.143Z,100571.13
2022-09-10T09:32:30.605Z,100562.66
2022-09-10T09:35:27.263Z,100562.66
2022-09-10T09:38:58.186Z,100574.25
2022-09-10T09:42:28.474Z,100573.25
2022-09-10T09:45:28.163Z,100594.47
2022-09-10T09:48:25.617Z,100593.47
2022-09-10T09:59:47.492Z,100582.25
2022-09-10T10:02:36.414Z,100598.53
2022-09-10T10:14:55.184Z,100600.72
2022-09-10T10:18:01.650Z,100597.22
2022-09-10T10:24:55.134Z,100620.88
2022-09-10T10:27:59.065Z,100627.06
2022-09-10T10:30:55.279Z,100633.13
2022-09-10T10:37:50.173Z,100628.94
2022-09-10T10:41:01.633Z,100638.28
2022-09-10T10:43:51.490Z,100649.72
2022-09-10T10:46:47.334Z,100650.84
2022-09-10T10:49:49.382Z,100650.00
2022-09-10T10:52:29.807Z,100650.47
2022-09-10T10:55:22.474Z,100653.47
2022-09-10T10:58:26.441Z,100663.34
2022-09-10T11:01:25.240Z,100663.78
2022-09-10T11:04:01.329Z,100654.34
2022-09-10T11:06:54.740Z,100657.75
2022-09-10T11:09:39.837Z,100661.25
2022-09-10T11:12:17.711Z,100659.59
2022-09-10T11:15:02.310Z,100667.19
2022-09-10T11:18:01.159Z,100665.03
2022-09-10T11:20:38.753Z,100672.13
2022-09-10T11:23:19.265Z,100678.19
2022-09-10T11:26:22.043Z,100680.03
2022-09-10T11:29:00.425Z,100686.25
2022-09-10T11:31:41.443Z,100684.25
2022-09-10T11:37:52.935Z,100694.78
2022-09-10T11:41:21.130Z,100695.25
2022-09-10T11:49:47.725Z,100710.03
2022-09-10T12:02:18.181Z,100728.13
2022-09-10T12:02:43.877Z,100722.59
2022-09-10T12:11:44.427Z,100740.41
2022-09-10T12:14:22.951Z,100744.38
2022-09-10T12:27:23.109Z,100716.19
2022-09-10T12:37:32.711Z,100763.63
2022-09-10T12:38:42.413Z,100745.78
2022-09-10T12:41:17.614Z,100770.00
2022-09-10T12:46:44.932Z,100745.13
2022-09-10T12:49:15.304Z,100749.22
2022-09-10T12:52:15.851Z,100761.75
2022-09-10T12:55:22.220Z,100753.69
2022-09-10T12:58:42.053Z,100762.41
2022-09-10T13:05:43.609Z,100790.56
2022-09-10T13:08:34.941Z,100776.19
2022-09-10T13:11:04.213Z,100773.38
2022-09-10T13:14:14.264Z,100776.88
2022-09-10T13:16:44.162Z,100782.38
2022-09-10T13:19:43.841Z,100783.06
2022-09-10T13:22:33.621Z,100791.03
2022-09-10T13:25:33.773Z,100805.50
2022-09-10T13:28:03.214Z,100795.63
2022-09-10T13:30:35.255Z,100806.97
2022-09-10T13:36:09.632Z,100806.13
2022-09-10T13:39:03.475Z,100807.72
2022-09-10T13:41:51.909Z,100812.13
2022-09-10T13:44:26.554Z,100831.91
2022-09-10T13:46:59.450Z,100827.97
2022-09-10T13:49:47.048Z,100830.41
2022-09-10T13:52:20.781Z,100831.09
2022-09-10T13:54:58.274Z,100842.66
2022-09-10T13:57:31.453Z,100844.66
2022-09-10T14:00:09.678Z,100842.28
2022-09-10T14:02:56.626Z,100855.81
2022-09-10T14:05:29.336Z,100847.63
2022-09-10T14:08:03.046Z,100848.03
2022-09-10T14:10:49.484Z,100857.53
2022-09-10T14:13:39.900Z,100859.38
2022-09-10T14:16:13.149Z,100869.94
2022-09-10T14:18:51.383Z,100871.19
2022-09-10T14:21:27.943Z,100883.03
2022-09-10T14:23:59.045Z,100889.81
2022-09-10T14:26:30.046Z,100891.75
2022-09-10T14:29:26.129Z,100892.19
2022-09-10T14:40:08.647Z,100919.56
2022-09-10T14:42:46.939Z,100930.00
2022-09-10T14:46:04.286Z,100935.38
2022-09-10T14:49:05.578Z,100937.22
2022-09-10T14:51:45.653Z,100950.34
2022-09-10T14:54:15.463Z,100961.38
2022-09-10T14:56:47.104Z,100969.88
2022-09-10T14:59:29.409Z,100958.59
2022-09-10T15:06:06.269Z,100980.84
2022-09-10T15:12:13.241Z,100987.78
2022-09-10T15:15:09.373Z,100990.22
2022-09-10T15:20:35.002Z,100992.88
2022-09-10T15:23:07.787Z,100990.53
2022-09-10T15:25:38.350Z,100992.81
2022-09-10T15:28:08.443Z,100993.34
2022-09-10T15:30:40.511Z,100998.63
2022-09-10T15:33:13.165Z,100993.63
2022-09-10T15:35:44.392Z,101001.28
2022-09-10T15:38:28.901Z,101005.19
2022-09-10T15:41:12.653Z,101010.56
2022-09-10T15:43:46.818Z,101007.88
2022-09-10T15:46:17.393Z,101008.03
2022-09-10T15:48:56.504Z,101004.81
2022-09-10T15:51:33.405Z,101008.06
2022-09-10T15:54:08.216Z,101014.84
2022-09-10T15:56:37.609Z,101026.72
2022-09-10T16:02:07.983Z,101027.16
2022-09-10T16:04:38.526Z,101045.56
2022-09-10T16:07:38.507Z,101058.28
2022-09-10T16:16:37.345Z,101069.91
2022-09-10T16:19:35.622Z,101075.56
2022-09-10T16:25:42.127Z,101087.28
2022-09-10T16:29:01.468Z,101093.63
2022-09-10T17:27:36.705Z,101166.31
2022-09-10T17:30:06.711Z,101187.25
2022-09-10T17:32:35.380Z,101194.06
2022-09-10T17:35:03.721Z,101190.25
2022-09-10T17:37:33.366Z,101210.75
2022-09-10T17:40:01.627Z,101204.97
2022-09-10T17:42:29.958Z,101214.75
2022-09-10T17:45:05.520Z,101234.06
2022-09-10T17:47:37.416Z,101227.53
2022-09-10T17:50:05.932Z,101233.75
2022-09-10T17:52:36.857Z,101224.97
2022-09-10T17:55:05.803Z,101233.88
2022-09-10T17:57:45.195Z,101237.16
2022-09-10T18:00:25.728Z,101250.59
2022-09-10T18:03:02.728Z,101270.66
2022-09-10T18:05:33.370Z,101270.25
2022-09-10T18:08:01.820Z,101267.19
2022-09-10T18:10:30.080Z,101272.59
2022-09-10T18:13:00.427Z,101281.66
2022-09-10T18:15:30.451Z,101271.97
2022-09-10T18:18:02.369Z,101268.03
2022-09-10T18:20:31.376Z,101264.41
2022-09-10T18:23:01.533Z,101250.13
2022-09-10T18:25:33.844Z,101246.31
2022-09-10T18:28:05.109Z,101250.28
